createdAt,value
2018-03-24T00:01:09.473Z,35.45
2018-03-24T00:03:38.004Z,38.55
2018-03-24T00:06:07.216Z,40.03
2018-03-24T00:08:36.507Z,42.75
2018-03-24T00:11:05.665Z,32.75
2018-03-24T00:13:34.289Z,43.17
2018-03-24T00:16:16.540Z,47.50
2018-03-24T00:18:45.544Z,35.95
2018-03-24T00:21:16.157Z,32.20
2018-03-24T00:23:47.964Z,58.47
2018-03-24T00:26:16.197Z,37.50
2018-03-24T00:28:44.352Z,42.28
2018-03-24T00:31:12.535Z,46.70
2018-03-24T00:33:44.668Z,56.92
2018-03-24T00:36:12.826Z,67.97
2018-03-24T00:38:41.222Z,48.65
2018-03-24T00:41:12.235Z,43.08
2018-03-24T00:43:40.877Z,52.60
2018-03-24T00:46:09.949Z,58.70
2018-03-24T00:48:38.165Z,61.35
2018-03-24T00:51:08.285Z,37.38
2018-03-24T00:53:38.813Z,91.10
2018-03-24T00:56:07.763Z,42.42
2018-03-24T00:58:38.938Z,41.83
2018-03-24T01:01:07.122Z,54.03
2018-03-24T01:03:36.260Z,42.58
2018-03-24T01:06:05.218Z,71.45
2018-03-24T01:08:34.177Z,53.35
2018-03-24T01:11:03.145Z,76.45
2018-03-24T01:13:32.393Z,60.12
2018-03-24T01:16:01.454Z,45.10
2018-03-24T01:18:31.132Z,64.20
2018-03-24T01:20:59.988Z,55.50
2018-03-24T01:23:28.293Z,49.58
2018-03-24T01:26:01.575Z,60.05
2018-03-24T01:28:30.277Z,55.53
2018-03-24T01:31:01.857Z,48.40
2018-03-24T01:33:30.997Z,53.10
2018-03-24T01:35:59.732Z,59.35
2018-03-24T01:38:29.146Z,39.42
2018-03-24T01:40:57.304Z,34.22
2018-03-24T01:43:26.284Z,38.50
2018-03-24T01:45:54.434Z,38.88
2018-03-24T01:48:23.371Z,52.33
2018-03-24T01:50:52.648Z,37.00
2018-03-24T01:53:21.032Z,70.90
2018-03-24T01:55:49.206Z,36.88
2018-03-24T01:58:18.196Z,47.67
2018-03-24T02:00:47.100Z,34.70
2018-03-24T02:03:15.274Z,28.00
2018-03-24T02:05:44.726Z,32.35
2018-03-24T02:08:12.909Z,44.03
2018-03-24T02:10:41.106Z,71.85
2018-03-24T02:13:16.796Z,52.40
2018-03-24T02:15:45.208Z,64.57
2018-03-24T02:18:16.916Z,40.22
2018-03-24T02:20:45.060Z,56.72
2018-03-24T02:23:14.419Z,37.80
2018-03-24T02:25:42.602Z,39.63
2018-03-24T02:28:10.783Z,35.17
2018-03-24T02:30:38.984Z,43.15
2018-03-24T02:33:07.293Z,40.65
2018-03-24T02:35:35.459Z,50.17
2018-03-24T02:38:04.536Z,45.12
2018-03-24T02:40:32.723Z,37.05
2018-03-24T02:43:02.057Z,32.90
2018-03-24T02:45:31.908Z,47.83
2018-03-24T02:48:00.077Z,48.60
2018-03-24T02:50:28.264Z,36.80
2018-03-24T02:52:58.033Z,69.03
2018-03-24T02:55:26.325Z,48.80
2018-03-24T02:57:55.566Z,27.70
2018-03-24T03:00:25.001Z,74.57
2018-03-24T03:02:59.374Z,35.35
2018-03-24T03:05:28.370Z,26.05
2018-03-24T03:07:56.518Z,38.00
2018-03-24T03:10:25.797Z,59.05
2018-03-24T03:12:56.336Z,36.10
2018-03-24T03:15:24.522Z,57.20
2018-03-24T03:17:53.073Z,42.70
2018-03-24T03:20:21.250Z,36.40
2018-03-24T03:22:49.439Z,53.95
2018-03-24T03:25:18.489Z,40.80
2018-03-24T03:27:46.649Z,48.67
2018-03-24T03:30:32.345Z,39.33
2018-03-24T03:33:06.391Z,31.23
2018-03-24T03:35:35.290Z,40.38
2018-03-24T03:38:07.708Z,30.58
2018-03-24T03:40:35.868Z,37.78
2018-03-24T03:43:06.936Z,45.22
2018-03-24T03:45:35.277Z,31.10
2018-03-24T03:48:03.480Z,40.50
2018-03-24T03:50:33.083Z,41.65
2018-03-24T03:53:02.097Z,51.83
2018-03-24T03:55:33.163Z,25.30
2018-03-24T03:58:02.705Z,52.28
2018-03-24T04:00:31.870Z,25.85
2018-03-24T04:03:02.310Z,45.20
2018-03-24T04:05:31.168Z,35.10
2018-03-24T04:08:03.769Z,56.55
2018-03-24T04:10:31.976Z,45.20
2018-03-24T04:13:01.205Z,44.42
2018-03-24T04:15:29.980Z,47.17
2018-03-24T04:17:58.975Z,47.95
2018-03-24T04:20:28.115Z,61.28
2018-03-24T04:23:06.060Z,38.88
2018-03-24T04:25:40.817Z,32.22
2018-03-24T04:28:08.991Z,46.35
2018-03-24T04:30:37.934Z,43.75
2018-03-24T04:33:06.917Z,52.35
2018-03-24T04:35:35.081Z,38.03
2018-03-24T04:38:04.996Z,36.25
2018-03-24T04:40:33.823Z,63.40
2018-03-24T04:43:02.047Z,53.13
2018-03-24T04:45:31.701Z,49.75
2018-03-24T04:47:59.891Z,47.95
2018-03-24T04:50:28.907Z,53.33
2018-03-24T04:52:58.468Z,46.85
2018-03-24T04:55:26.642Z,54.60
2018-03-24T04:57:55.235Z,37.55
2018-03-24T05:00:24.356Z,70.12
2018-03-24T05:02:57.291Z,33.42
2018-03-24T05:05:26.308Z,43.10
2018-03-24T05:07:58.949Z,78.40
2018-03-24T05:10:28.000Z,59.88
2018-03-24T05:12:56.313Z,50.85
2018-03-24T05:15:25.191Z,34.78
2018-03-24T05:17:54.121Z,61.33
2018-03-24T05:20:23.094Z,42.38
2018-03-24T05:22:52.912Z,48.75
2018-03-24T05:25:21.089Z,67.62
2018-03-24T05:27:49.264Z,35.10
2018-03-24T05:30:19.222Z,31.98
2018-03-24T05:32:47.460Z,37.88
2018-03-24T05:35:15.619Z,56.65
2018-03-24T05:37:44.068Z,54.72
2018-03-24T05:40:12.260Z,61.97
2018-03-24T05:42:40.556Z,55.15
2018-03-24T05:45:10.000Z,35.35
2018-03-24T05:47:38.165Z,46.35
2018-03-24T05:50:06.349Z,37.13
2018-03-24T05:52:38.483Z,46.47
2018-03-24T05:55:06.751Z,58.33
2018-03-24T05:57:35.733Z,36.47
2018-03-24T06:00:03.964Z,32.65
2018-03-24T06:02:32.125Z,51.22
2018-03-24T06:05:01.314Z,40.30
2018-03-24T06:07:29.476Z,40.65
2018-03-24T06:09:57.671Z,42.58
2018-03-24T06:12:27.542Z,29.45
2018-03-24T06:14:55.708Z,36.35
2018-03-24T06:17:23.890Z,39.20
2018-03-24T06:19:53.296Z,35.30
2018-03-24T06:22:21.547Z,28.92
2018-03-24T06:24:49.732Z,41.45
2018-03-24T06:27:17.975Z,30.90
2018-03-24T06:29:46.150Z,32.05
2018-03-24T06:32:14.951Z,30.23
2018-03-24T06:34:45.113Z,37.85
2018-03-24T06:37:18.341Z,45.45
2018-03-24T06:39:47.525Z,35.45
2018-03-24T06:42:16.399Z,38.58
2018-03-24T06:44:44.658Z,39.80
2018-03-24T06:47:14.079Z,36.55
2018-03-24T06:49:42.243Z,35.15
2018-03-24T06:52:14.015Z,35.85
2018-03-24T06:54:42.223Z,34.85
2018-03-24T06:57:10.755Z,34.70
2018-03-24T06:59:40.389Z,42.72
2018-03-24T07:02:19.480Z,38.10
2018-03-24T07:04:47.646Z,38.55
2018-03-24T07:07:15.926Z,37.80
2018-03-24T07:09:45.978Z,41.22
2018-03-24T07:12:14.172Z,43.70
2018-03-24T07:14:42.788Z,44.50
2018-03-24T07:17:12.084Z,36.70
2018-03-24T07:19:40.239Z,40.03
2018-03-24T07:25:10.749Z,48.42
2018-03-24T07:27:40.416Z,54.35
2018-03-24T07:30:08.569Z,49.97
2018-03-24T07:32:44.306Z,48.35
2018-03-24T07:35:13.197Z,49.65
2018-03-24T07:37:45.522Z,46.05
2018-03-24T07:40:13.681Z,47.00
2018-03-24T07:42:48.283Z,49.28
2018-03-24T07:45:17.423Z,44.33
2018-03-24T07:47:47.433Z,51.20
2018-03-24T07:50:16.476Z,47.28
2018-03-24T07:52:45.728Z,46.45
2018-03-24T07:55:15.114Z,45.60
2018-03-24T07:57:44.272Z,48.47
2018-03-24T08:00:13.124Z,44.45
2018-03-24T08:02:42.233Z,43.45
2018-03-24T08:05:10.423Z,44.97
2018-03-24T08:07:38.593Z,39.92
2018-03-24T08:10:06.988Z,40.80
2018-03-24T08:12:35.264Z,38.67
2018-03-24T08:15:03.712Z,37.55
2018-03-24T08:17:31.905Z,32.08
2018-03-24T08:20:00.129Z,35.25
2018-03-24T08:22:28.374Z,34.83
2018-03-24T08:24:57.883Z,31.92
2018-03-24T08:27:26.042Z,35.83
2018-03-24T08:29:54.805Z,32.38
2018-03-24T08:32:23.459Z,30.70
2018-03-24T08:34:52.072Z,30.98
2018-03-24T08:37:20.929Z,32.15
2018-03-24T08:39:49.079Z,27.65
2018-03-24T08:42:17.245Z,26.80
2018-03-24T08:44:45.434Z,26.90
2018-03-24T08:47:14.394Z,22.75
2018-03-24T08:49:42.568Z,26.48
2018-03-24T08:52:19.761Z,24.10
2018-03-24T08:54:48.012Z,23.73
2018-03-24T08:57:16.188Z,21.05
2018-03-24T08:59:44.365Z,23.27
2018-03-24T09:02:13.005Z,24.02
2018-03-24T09:04:41.155Z,18.65
2018-03-24T09:07:09.340Z,21.62
2018-03-24T09:09:37.510Z,20.25
2018-03-24T09:12:05.736Z,18.60
2018-03-24T09:14:33.916Z,17.73
2018-03-24T09:17:02.073Z,21.83
2018-03-24T09:19:30.263Z,18.50
2018-03-24T09:21:58.421Z,17.92
2018-03-24T09:24:26.630Z,19.77
2018-03-24T09:26:55.572Z,23.70
2018-03-24T09:29:23.724Z,18.33
2018-03-24T09:31:52.576Z,14.98
2018-03-24T09:34:20.762Z,20.23
2018-03-24T09:36:48.936Z,15.30
2018-03-24T09:39:17.103Z,12.98
2018-03-24T09:41:45.296Z,16.05
2018-03-24T09:44:13.462Z,13.32
2018-03-24T09:46:41.630Z,11.68
2018-03-24T09:49:09.816Z,11.50
2018-03-24T09:51:38.003Z,10.68
2018-03-24T09:54:06.189Z,14.25
2018-03-24T09:56:34.355Z,13.57
2018-03-24T09:59:03.151Z,11.32
2018-03-24T10:01:31.539Z,12.82
2018-03-24T10:03:59.708Z,12.02
2018-03-24T10:06:27.872Z,9.65
2018-03-24T10:08:56.075Z,12.80
2018-03-24T10:11:24.248Z,11.32
2018-03-24T10:13:53.292Z,10.35
2018-03-24T10:16:21.449Z,10.35
2018-03-24T10:18:49.625Z,11.30
2018-03-24T10:24:29.934Z,12.02
2018-03-24T10:26:58.110Z,14.13
2018-03-24T10:29:27.015Z,10.63
2018-03-24T10:31:55.182Z,10.88
2018-03-24T10:34:23.366Z,10.70
2018-03-24T10:36:51.581Z,9.57
2018-03-24T10:39:19.713Z,10.85
2018-03-24T10:41:47.933Z,13.38
2018-03-24T10:44:16.114Z,10.98
2018-03-24T10:46:44.289Z,9.88
2018-03-24T10:49:12.446Z,11.95
2018-03-24T10:51:41.357Z,11.88
2018-03-24T10:54:09.533Z,10.73
2018-03-24T10:56:37.698Z,8.43
2018-03-24T10:59:05.869Z,13.52
2018-03-24T11:01:34.022Z,10.95
2018-03-24T11:04:02.961Z,10.20
2018-03-24T11:06:31.149Z,9.75
2018-03-24T11:08:59.331Z,12.82
2018-03-24T11:11:27.482Z,9.15
2018-03-24T11:13:55.749Z,9.82
2018-03-24T11:16:23.894Z,11.12
2018-03-24T11:18:52.818Z,9.32
2018-03-24T11:21:20.975Z,10.00
2018-03-24T11:23:49.238Z,11.65
2018-03-24T11:26:17.412Z,9.23
2018-03-24T11:28:45.551Z,9.57
2018-03-24T11:31:13.717Z,9.90
2018-03-24T11:33:41.940Z,11.07
2018-03-24T11:36:10.134Z,10.45
2018-03-24T11:38:38.313Z,10.10
2018-03-24T11:41:06.723Z,11.30
2018-03-24T11:43:34.884Z,9.77
2018-03-24T11:46:03.036Z,10.60
2018-03-24T11:48:31.246Z,10.70
2018-03-24T11:50:59.395Z,13.18
2018-03-24T11:53:39.959Z,12.80
2018-03-24T11:56:08.152Z,15.23
2018-03-24T11:58:36.306Z,11.98
2018-03-24T12:01:04.471Z,11.57
2018-03-24T12:03:35.995Z,11.70
2018-03-24T12:06:04.374Z,12.48
2018-03-24T12:11:09.030Z,10.95
2018-03-24T12:18:49.080Z,10.02
2018-03-24T12:21:17.262Z,12.88
2018-03-24T12:23:45.595Z,10.35
2018-03-24T12:26:13.749Z,12.68
2018-03-24T12:28:41.921Z,14.57
2018-03-24T12:31:10.214Z,13.55
2018-03-24T12:33:40.201Z,14.18
2018-03-24T12:36:09.466Z,10.77
2018-03-24T12:38:37.795Z,12.13
2018-03-24T12:41:06.215Z,13.45
2018-03-24T12:43:34.533Z,12.68
2018-03-24T12:46:03.558Z,12.40
2018-03-24T12:48:31.740Z,10.93
2018-03-24T12:50:59.929Z,14.50
2018-03-24T12:53:29.100Z,15.75
2018-03-24T12:55:58.211Z,13.23
2018-03-24T12:58:27.240Z,12.80
2018-03-24T13:00:56.224Z,15.35
2018-03-24T13:03:28.188Z,15.20
2018-03-24T13:05:56.417Z,13.15
2018-03-24T13:08:24.639Z,14.32
2018-03-24T13:10:52.816Z,13.68
2018-03-24T13:13:20.994Z,15.80
2018-03-24T13:15:50.051Z,14.82
2018-03-24T13:18:18.221Z,14.00
2018-03-24T13:20:46.386Z,15.30
2018-03-24T13:23:17.732Z,14.07
2018-03-24T13:25:45.907Z,17.30
2018-03-24T13:28:23.446Z,14.32
2018-03-24T13:39:42.384Z,17.48
2018-03-24T13:47:49.290Z,15.70
2018-03-24T13:50:22.261Z,18.27
2018-03-24T13:55:25.586Z,16.42
2018-03-24T13:57:55.519Z,16.90
2018-03-24T14:00:29.397Z,15.25
2018-03-24T14:06:05.345Z,14.10
2018-03-24T14:08:41.414Z,17.50
2018-03-24T14:16:55.691Z,14.13
2018-03-24T14:43:02.769Z,13.80
2018-03-24T14:45:31.839Z,13.87
2018-03-24T15:00:06.456Z,16.70
2018-03-24T15:02:36.639Z,16.48
2018-03-24T15:39:40.102Z,14.55
2018-03-24T15:42:09.286Z,14.15
2018-03-24T15:44:37.435Z,17.33
2018-03-24T15:47:05.647Z,15.40
2018-03-24T15:49:33.989Z,15.65
2018-03-24T15:55:02.596Z,15.30
2018-03-24T15:57:37.304Z,17.10
2018-03-24T16:00:06.180Z,18.23
2018-03-24T16:02:38.095Z,17.23
2018-03-24T16:05:06.353Z,17.10
2018-03-24T16:07:34.641Z,18.98
2018-03-24T16:10:03.819Z,12.88
2018-03-24T16:12:40.144Z,22.50
2018-03-24T16:17:42.615Z,17.75
2018-03-24T16:20:11.604Z,16.55
2018-03-24T16:22:46.920Z,17.85
2018-03-24T16:25:15.127Z,18.30
2018-03-24T16:27:44.972Z,15.57
2018-03-24T16:30:13.175Z,19.35
2018-03-24T16:32:41.344Z,18.33
2018-03-24T16:35:10.865Z,20.48
2018-03-24T16:37:39.269Z,17.75
2018-03-24T16:40:07.440Z,16.80
2018-03-24T16:42:36.630Z,15.55
2018-03-24T16:45:04.792Z,21.77
2018-03-24T16:47:32.963Z,19.05
2018-03-24T16:50:01.150Z,17.75
2018-03-24T16:52:29.434Z,18.27
2018-03-24T16:54:58.571Z,18.35
2018-03-24T16:57:26.774Z,16.73
2018-03-24T16:59:54.961Z,13.95
2018-03-24T17:02:27.774Z,12.63
2018-03-24T17:04:55.943Z,18.27
2018-03-24T17:07:24.222Z,16.27
2018-03-24T17:09:52.394Z,15.23
2018-03-24T17:12:23.819Z,17.73
2018-03-24T17:14:52.074Z,16.15
2018-03-24T17:17:21.556Z,13.32
2018-03-24T17:19:49.711Z,16.35
2018-03-24T17:22:17.928Z,14.73
2018-03-24T17:24:46.100Z,15.93
2018-03-24T17:27:14.263Z,14.60
2018-03-24T17:29:42.425Z,15.55
2018-03-24T17:32:14.565Z,18.70
2018-03-24T17:34:42.724Z,15.38
2018-03-24T17:37:11.921Z,18.67
2018-03-24T17:39:40.154Z,17.37
2018-03-24T17:42:08.469Z,17.50
2018-03-24T17:44:36.673Z,17.75
2018-03-24T17:47:05.387Z,14.05
2018-03-24T17:49:33.760Z,17.73
2018-03-24T17:52:02.986Z,17.20
2018-03-24T17:54:31.172Z,17.27
2018-03-24T17:56:59.347Z,19.55
2018-03-24T17:59:27.506Z,22.35
2018-03-24T18:01:55.682Z,16.33
2018-03-24T18:04:23.996Z,18.75
2018-03-24T18:06:52.965Z,17.08
2018-03-24T18:09:21.137Z,17.08
2018-03-24T18:11:50.011Z,15.25
2018-03-24T18:14:18.190Z,14.98
2018-03-24T18:16:46.378Z,15.60
2018-03-24T18:19:14.562Z,15.82
2018-03-24T18:21:43.511Z,18.65
2018-03-24T18:24:12.440Z,17.50
2018-03-24T18:26:40.850Z,14.63
2018-03-24T18:29:10.093Z,19.83
2018-03-24T18:31:38.305Z,16.40
2018-03-24T18:37:13.115Z,18.90
2018-03-24T18:39:41.311Z,16.75
2018-03-24T18:42:10.497Z,16.42
2018-03-24T18:44:38.669Z,15.25
2018-03-24T18:47:06.843Z,17.60
2018-03-24T18:49:35.074Z,17.05
2018-03-24T18:52:16.866Z,19.42
2018-03-24T18:54:50.792Z,18.05
2018-03-24T18:57:19.762Z,15.77
2018-03-24T18:59:50.004Z,14.68
2018-03-24T19:02:19.479Z,14.55
2018-03-24T19:04:47.678Z,16.35
2018-03-24T19:07:15.877Z,16.90
2018-03-24T19:09:44.832Z,24.25
2018-03-24T19:12:16.253Z,18.80
2018-03-24T19:14:44.542Z,15.38
2018-03-24T19:17:12.713Z,15.07
2018-03-24T19:19:40.885Z,16.73
2018-03-24T19:22:14.952Z,14.27
2018-03-24T19:24:43.990Z,20.05
2018-03-24T19:27:12.172Z,16.55
2018-03-24T19:29:40.442Z,14.93
2018-03-24T19:32:12.114Z,13.80
2018-03-24T19:34:40.394Z,22.10
2018-03-24T19:37:08.561Z,28.08
2018-03-24T19:39:36.752Z,18.67
2018-03-24T19:42:05.023Z,23.62
2018-03-24T19:44:33.191Z,13.02
2018-03-24T19:47:01.343Z,19.10
2018-03-24T19:49:29.516Z,19.10
2018-03-24T19:51:57.693Z,18.05
2018-03-24T19:54:25.863Z,14.85
2018-03-24T19:56:54.820Z,13.77
2018-03-24T19:59:23.877Z,10.30
2018-03-24T20:01:52.042Z,15.80
2018-03-24T20:04:20.906Z,15.27
2018-03-24T20:06:49.071Z,16.87
2018-03-24T20:09:17.219Z,15.40
2018-03-24T20:11:45.441Z,15.20
2018-03-24T20:14:13.624Z,15.35
2018-03-24T20:16:41.798Z,13.07
2018-03-24T20:19:09.996Z,12.10
2018-03-24T20:21:38.175Z,18.90
2018-03-24T20:24:06.354Z,14.05
2018-03-24T20:26:35.216Z,11.40
2018-03-24T20:29:03.385Z,9.10
2018-03-24T20:31:31.546Z,12.90
2018-03-24T20:34:00.215Z,15.13
2018-03-24T20:36:28.386Z,13.82
2018-03-24T20:38:56.551Z,12.25
2018-03-24T20:41:24.988Z,15.65
2018-03-24T20:43:55.211Z,13.98
2018-03-24T20:46:23.363Z,16.12
2018-03-24T20:48:52.327Z,15.90
2018-03-24T20:51:20.501Z,13.35
2018-03-24T20:53:48.673Z,11.85
2018-03-24T20:56:16.841Z,12.27
2018-03-24T20:58:45.763Z,16.30
2018-03-24T21:01:13.954Z,15.85
2018-03-24T21:03:43.254Z,13.95
2018-03-24T21:06:11.393Z,14.35
2018-03-24T21:08:39.587Z,17.40
2018-03-24T21:11:07.821Z,17.70
2018-03-24T21:13:36.832Z,26.42
2018-03-24T21:16:05.012Z,24.27
2018-03-24T21:18:34.202Z,17.90
2018-03-24T21:21:03.136Z,21.25
2018-03-24T21:23:31.430Z,15.60
2018-03-24T21:25:59.605Z,21.58
2018-03-24T21:28:27.759Z,22.33
2018-03-24T21:30:55.974Z,20.10
2018-03-24T21:33:24.535Z,21.95
2018-03-24T21:35:52.718Z,20.12
2018-03-24T21:38:20.922Z,19.80
2018-03-24T21:40:51.226Z,18.50
2018-03-24T21:43:19.447Z,19.00
2018-03-24T21:45:47.614Z,17.00
2018-03-24T21:48:15.879Z,27.23
2018-03-24T21:50:44.195Z,35.53
2018-03-24T21:53:12.380Z,31.73
2018-03-24T21:55:40.563Z,19.83
2018-03-24T21:58:08.729Z,22.98
2018-03-24T22:00:36.899Z,20.10
2018-03-24T22:03:05.098Z,19.55
2018-03-24T22:05:33.263Z,18.77
2018-03-24T22:08:06.288Z,20.70
2018-03-24T22:10:34.448Z,25.55
2018-03-24T22:13:03.516Z,16.55
2018-03-24T22:15:31.725Z,20.15
2018-03-24T22:18:00.196Z,18.58
2018-03-24T22:20:28.898Z,15.52
2018-03-24T22:22:57.178Z,18.37
2018-03-24T22:25:25.352Z,19.90
2018-03-24T22:27:54.384Z,15.90
2018-03-24T22:30:22.541Z,22.70
2018-03-24T22:32:51.534Z,18.40
2018-03-24T22:35:19.711Z,19.25
2018-03-24T22:37:47.974Z,19.33
2018-03-24T22:40:16.141Z,21.92
2018-03-24T22:42:47.895Z,23.75
2018-03-24T22:45:16.145Z,21.62
2018-03-24T22:47:46.658Z,24.25
2018-03-24T22:50:15.462Z,19.10
2018-03-24T22:52:43.676Z,25.27
2018-03-24T22:55:11.839Z,25.52
2018-03-24T22:57:41.431Z,23.10
2018-03-24T23:00:10.365Z,20.52
2018-03-24T23:02:38.640Z,22.95
2018-03-24T23:05:06.820Z,32.30
2018-03-24T23:07:34.997Z,27.77
2018-03-24T23:10:03.171Z,29.67
2018-03-24T23:12:35.245Z,24.98
2018-03-24T23:15:03.833Z,20.52
2018-03-24T23:17:32.672Z,20.15
2018-03-24T23:20:00.887Z,23.98
2018-03-24T23:22:29.114Z,22.58
2018-03-24T23:24:57.773Z,25.67
2018-03-24T23:27:25.985Z,22.37
2018-03-24T23:29:54.191Z,26.10
2018-03-24T23:32:22.458Z,25.08
2018-03-24T23:34:50.669Z,29.08
2018-03-24T23:37:18.897Z,28.90
2018-03-24T23:39:47.074Z,26.73
2018-03-24T23:42:15.335Z,24.70
2018-03-24T23:44:43.501Z,28.52
2018-03-24T23:47:11.975Z,25.12
2018-03-24T23:49:40.905Z,33.38
2018-03-24T23:52:09.089Z,32.50
2018-03-24T23:54:37.275Z,29.98
2018-03-24T23:57:05.450Z,22.83
2018-03-24T23:59:33.616Z,25.92
